Perla, Arkansas
Current Conditions -  °F | °C
As of 3:00 AM on Sunday 26 Oct 2014 (Local Time) from KHOT Reporting Station
Haze Haze  
Wind Chill: 61°   Ceiling: Unl
Heat Index: 61°   Visibility: 1.7mi
Dew Point: 60°   Wind: 0mph
Humidity: 97%   Direction: NA
Pressure: 30.02"   Gusts: NA
Location:  34.3189°N, 92.8629°W
Report Text: KHOT 260800Z AUTO 00000KT 1 3/4SM BR CLR 16/16 A3002 RMK AO2 VIS 1V3 T01610156
Loading
Personal Weather Stations






























Interactive Weather Map
Tropical Storm Tracking
New forecast layout! Learn more

10-Day Weather Forecast

Advertisements
Track Severe Weather on mobile